sensor_id;sensor_type;location;lat;lon;timestamp;pressure;altitude;pressure_sealevel;temperature;humidity
15914;BME280;8055;51.930;8.840;2023-01-16T00:01:42;75468.78;;;-145.72;100.00
15914;BME280;8055;51.930;8.840;2023-01-16T00:04:08;75464.66;;;-145.72;100.00
15914;BME280;8055;51.930;8.840;2023-01-16T00:06:33;75475.00;;;-145.72;100.00
15914;BME280;8055;51.930;8.840;2023-01-16T00:09:01;75493.63;;;-145.72;100.00
15914;BME280;8055;51.930;8.840;2023-01-16T00:11:27;75485.34;;;-145.72;100.00
15914;BME280;8055;51.930;8.840;2023-01-16T00:13:52;75493.63;;;-145.72;100.00
15914;BME280;8055;51.930;8.840;2023-01-16T00:16:18;75495.69;;;-145.72;100.00
15914;BME280;8055;51.930;8.840;2023-01-16T00:18:44;75495.69;;;-145.72;100.00
15914;BME280;8055;51.930;8.840;2023-01-16T00:21:10;75491.56;;;-145.72;100.00
15914;BME280;8055;51.930;8.840;2023-01-16T00:23:35;75487.41;;;-145.72;100.00
15914;BME280;8055;51.930;8.840;2023-01-16T00:26:05;75489.50;;;-145.72;100.00
15914;BME280;8055;51.930;8.840;2023-01-16T00:28:30;75487.41;;;-145.72;100.00
15914;BME280;8055;51.930;8.840;2023-01-16T00:30:57;75489.50;;;-145.72;100.00
15914;BME280;8055;51.930;8.840;2023-01-16T00:33:23;75481.22;;;-145.72;100.00
15914;BME280;8055;51.930;8.840;2023-01-16T00:35:48;75477.06;;;-145.72;100.00
15914;BME280;8055;51.930;8.840;2023-01-16T00:38:14;75466.72;;;-145.72;100.00
15914;BME280;8055;51.930;8.840;2023-01-16T00:40:39;75477.06;;;-145.72;100.00
15914;BME280;8055;51.930;8.840;2023-01-16T00:43:06;75468.78;;;-145.72;100.00
15914;BME280;8055;51.930;8.840;2023-01-16T00:45:32;75464.66;;;-145.72;100.00
15914;BME280;8055;51.930;8.840;2023-01-16T00:47:57;75458.44;;;-145.72;100.00
15914;BME280;8055;51.930;8.840;2023-01-16T00:50:24;75460.53;;;-145.72;100.00
15914;BME280;8055;51.930;8.840;2023-01-16T00:52:49;75454.31;;;-145.72;100.00
15914;BME280;8055;51.930;8.840;2023-01-16T00:55:14;75458.44;;;-145.72;100.00
15914;BME280;8055;51.930;8.840;2023-01-16T00:57:40;75460.53;;;-145.72;100.00
15914;BME280;8055;51.930;8.840;2023-01-16T01:00:05;75466.72;;;-145.72;100.00
15914;BME280;8055;51.930;8.840;2023-01-16T01:02:31;75462.59;;;-145.72;100.00
15914;BME280;8055;51.930;8.840;2023-01-16T01:04:56;75460.53;;;-145.72;100.00
15914;BME280;8055;51.930;8.840;2023-01-16T01:07:22;75458.44;;;-145.72;100.00
15914;BME280;8055;51.930;8.840;2023-01-16T01:09:47;75443.97;;;-145.72;100.00
15914;BME280;8055;51.930;8.840;2023-01-16T01:12:12;75448.09;;;-145.72;100.00
15914;BME280;8055;51.930;8.840;2023-01-16T01:14:38;75437.75;;;-145.72;100.00
15914;BME280;8055;51.930;8.840;2023-01-16T01:17:03;75435.69;;;-145.72;100.00
15914;BME280;8055;51.930;8.840;2023-01-16T01:19:28;75439.81;;;-145.72;100.00
15914;BME280;8055;51.930;8.840;2023-01-16T01:21:54;75431.56;;;-145.72;100.00
15914;BME280;8055;51.930;8.840;2023-01-16T01:24:19;75439.81;;;-145.72;100.00
15914;BME280;8055;51.930;8.840;2023-01-16T01:26:45;75433.63;;;-145.72;100.00
15914;BME280;8055;51.930;8.840;2023-01-16T01:29:11;75433.63;;;-145.72;100.00
15914;BME280;8055;51.930;8.840;2023-01-16T01:31:36;75425.34;;;-145.72;100.00
15914;BME280;8055;51.930;8.840;2023-01-16T01:34:02;75410.88;;;-145.72;100.00
15914;BME280;8055;51.930;8.840;2023-01-16T01:36:27;75423.28;;;-145.72;100.00
15914;BME280;8055;51.930;8.840;2023-01-16T01:38:52;75398.44;;;-145.72;100.00
15914;BME280;8055;51.930;8.840;2023-01-16T01:41:18;75408.78;;;-145.72;100.00
15914;BME280;8055;51.930;8.840;2023-01-16T01:43:47;75398.44;;;-145.72;100.00
15914;BME280;8055;51.930;8.840;2023-01-16T01:46:26;75402.59;;;-145.72;100.00
15914;BME280;8055;51.930;8.840;2023-01-16T01:48:59;75408.78;;;-145.72;100.00
15914;BME280;8055;51.930;8.840;2023-01-16T01:51:29;75415.00;;;-145.72;100.00
15914;BME280;8055;51.930;8.840;2023-01-16T01:54:06;75406.72;;;-145.72;100.00
15914;BME280;8055;51.930;8.840;2023-01-16T01:56:53;75406.72;;;-145.72;100.00
15914;BME280;8055;51.930;8.840;2023-01-16T01:59:23;75408.78;;;-145.72;100.00
15914;BME280;8055;51.930;8.840;2023-01-16T02:01:50;75408.78;;;-145.72;100.00
15914;BME280;8055;51.930;8.840;2023-01-16T02:04:19;75406.72;;;-145.72;100.00
15914;BME280;8055;51.930;8.840;2023-01-16T02:06:51;75415.00;;;-145.72;100.00
15914;BME280;8055;51.930;8.840;2023-01-16T02:09:18;75408.78;;;-145.72;100.00
15914;BME280;8055;51.930;8.840;2023-01-16T02:11:57;75392.25;;;-145.72;100.00
15914;BME280;8055;51.930;8.840;2023-01-16T02:14:26;75386.03;;;-145.72;100.00
15914;BME280;8055;51.930;8.840;2023-01-16T02:16:58;75390.16;;;-145.72;100.00
15914;BME280;8055;51.930;8.840;2023-01-16T02:20:40;75386.03;;;-145.72;100.00
15914;BME280;8055;51.930;8.840;2023-01-16T02:23:08;75379.81;;;-145.72;100.00
15914;BME280;8055;51.930;8.840;2023-01-16T02:34:05;75373.63;;;-145.72;100.00
15914;BME280;8055;51.930;8.840;2023-01-16T02:37:11;75371.56;;;-145.72;100.00
15914;BME280;8055;51.930;8.840;2023-01-16T02:42:36;75355.00;;;-145.72;100.00
15914;BME280;8055;51.930;8.840;2023-01-16T02:45:18;75352.94;;;-145.72;100.00
15914;BME280;8055;51.930;8.840;2023-01-16T02:48:11;75346.72;;;-145.72;100.00
15914;BME280;8055;51.930;8.840;2023-01-16T02:51:06;75346.72;;;-145.72;100.00
15914;BME280;8055;51.930;8.840;2023-01-16T02:54:03;75344.66;;;-145.72;100.00
15914;BME280;8055;51.930;8.840;2023-01-16T02:56:43;75342.59;;;-145.72;100.00
15914;BME280;8055;51.930;8.840;2023-01-16T02:59:12;75342.59;;;-145.72;100.00
15914;BME280;8055;51.930;8.840;2023-01-16T03:01:39;75332.25;;;-145.72;100.00
15914;BME280;8055;51.930;8.840;2023-01-16T03:10:07;75332.25;;;-145.72;100.00
15914;BME280;8055;51.930;8.840;2023-01-16T03:15:43;75323.97;;;-145.72;100.00
15914;BME280;8055;51.930;8.840;2023-01-16T03:20:56;75332.25;;;-145.72;100.00
15914;BME280;8055;51.930;8.840;2023-01-16T03:23:39;75323.97;;;-145.72;100.00
15914;BME280;8055;51.930;8.840;2023-01-16T03:26:16;75332.25;;;-145.72;100.00
15914;BME280;8055;51.930;8.840;2023-01-16T03:31:36;75336.38;;;-145.72;100.00
15914;BME280;8055;51.930;8.840;2023-01-16T03:34:15;75346.72;;;-145.72;100.00
15914;BME280;8055;51.930;8.840;2023-01-16T03:36:53;75336.38;;;-145.72;100.00
15914;BME280;8055;51.930;8.840;2023-01-16T03:39:24;75338.44;;;-145.72;100.00
15914;BME280;8055;51.930;8.840;2023-01-16T03:41:53;75344.66;;;-145.72;100.00
15914;BME280;8055;51.930;8.840;2023-01-16T03:44:28;75342.59;;;-145.72;100.00
15914;BME280;8055;51.930;8.840;2023-01-16T03:46:55;75334.31;;;-145.72;100.00
15914;BME280;8055;51.930;8.840;2023-01-16T03:49:34;75338.44;;;-145.72;100.00
15914;BME280;8055;51.930;8.840;2023-01-16T03:52:04;75342.59;;;-145.72;100.00
15914;BME280;8055;51.930;8.840;2023-01-16T03:59:35;75332.25;;;-145.72;100.00
15914;BME280;8055;51.930;8.840;2023-01-16T04:05:04;75326.03;;;-145.72;100.00
15914;BME280;8055;51.930;8.840;2023-01-16T04:07:42;75319.81;;;-145.72;100.00
15914;BME280;8055;51.930;8.840;2023-01-16T04:10:12;75328.09;;;-145.72;100.00
15914;BME280;8055;51.930;8.840;2023-01-16T04:12:45;75332.25;;;-145.72;100.00
15914;BME280;8055;51.930;8.840;2023-01-16T04:15:12;75323.97;;;-145.72;100.00
15914;BME280;8055;51.930;8.840;2023-01-16T04:17:39;75328.09;;;-145.72;100.00
15914;BME280;8055;51.930;8.840;2023-01-16T04:20:06;75313.63;;;-145.72;100.00
15914;BME280;8055;51.930;8.840;2023-01-16T04:22:32;75311.56;;;-145.72;100.00
15914;BME280;8055;51.930;8.840;2023-01-16T04:24:59;75301.19;;;-145.72;100.00
15914;BME280;8055;51.930;8.840;2023-01-16T04:27:25;75292.94;;;-145.72;100.00
15914;BME280;8055;51.930;8.840;2023-01-16T04:29:51;75286.72;;;-145.72;100.00
15914;BME280;8055;51.930;8.840;2023-01-16T04:32:17;75280.50;;;-145.72;100.00
15914;BME280;8055;51.930;8.840;2023-01-16T04:34:42;75274.31;;;-145.72;100.00
15914;BME280;8055;51.930;8.840;2023-01-16T04:37:09;75261.91;;;-145.72;100.00
15914;BME280;8055;51.930;8.840;2023-01-16T04:39:37;75261.91;;;-145.72;100.00
15914;BME280;8055;51.930;8.840;2023-01-16T04:42:02;75249.47;;;-145.72;100.00
15914;BME280;8055;51.930;8.840;2023-01-16T04:44:28;75255.69;;;-145.72;100.00
15914;BME280;8055;51.930;8.840;2023-01-16T04:46:53;75259.81;;;-145.72;100.00
15914;BME280;8055;51.930;8.840;2023-01-16T04:49:19;75251.56;;;-145.72;100.00
15914;BME280;8055;51.930;8.840;2023-01-16T04:51:44;75251.56;;;-145.72;100.00
15914;BME280;8055;51.930;8.840;2023-01-16T04:54:14;75241.19;;;-145.72;100.00
15914;BME280;8055;51.930;8.840;2023-01-16T04:56:40;75232.94;;;-145.72;100.00
15914;BME280;8055;51.930;8.840;2023-01-16T04:59:07;75224.66;;;-145.72;100.00
15914;BME280;8055;51.930;8.840;2023-01-16T05:01:32;75222.59;;;-145.72;100.00
15914;BME280;8055;51.930;8.840;2023-01-16T05:04:04;75212.25;;;-145.72;100.00
15914;BME280;8055;51.930;8.840;2023-01-16T05:06:30;75210.16;;;-145.72;100.00
15914;BME280;8055;51.930;8.840;2023-01-16T05:08:56;75201.91;;;-145.72;100.00
15914;BME280;8055;51.930;8.840;2023-01-16T05:11:21;75197.75;;;-145.72;100.00
15914;BME280;8055;51.930;8.840;2023-01-16T05:13:47;75197.75;;;-145.72;100.00
15914;BME280;8055;51.930;8.840;2023-01-16T05:16:12;75201.91;;;-145.72;100.00
15914;BME280;8055;51.930;8.840;2023-01-16T05:18:37;75199.81;;;-145.72;100.00
15914;BME280;8055;51.930;8.840;2023-01-16T05:21:03;75195.69;;;-145.72;100.00
15914;BME280;8055;51.930;8.840;2023-01-16T05:23:30;75193.63;;;-145.72;100.00
15914;BME280;8055;51.930;8.840;2023-01-16T05:25:58;75203.97;;;-145.72;100.00
15914;BME280;8055;51.930;8.840;2023-01-16T05:28:23;75195.69;;;-145.72;100.00
15914;BME280;8055;51.930;8.840;2023-01-16T05:30:49;75195.69;;;-145.72;100.00
15914;BME280;8055;51.930;8.840;2023-01-16T05:33:15;75193.63;;;-145.72;100.00
15914;BME280;8055;51.930;8.840;2023-01-16T05:35:40;75193.63;;;-145.72;100.00
15914;BME280;8055;51.930;8.840;2023-01-16T05:38:05;75193.63;;;-145.72;100.00
15914;BME280;8055;51.930;8.840;2023-01-16T05:40:31;75181.22;;;-145.72;100.00
15914;BME280;8055;51.930;8.840;2023-01-16T05:42:56;75179.13;;;-145.72;100.00
15914;BME280;8055;51.930;8.840;2023-01-16T05:45:22;75181.22;;;-145.72;100.00
15914;BME280;8055;51.930;8.840;2023-01-16T05:47:47;75179.13;;;-145.72;100.00
15914;BME280;8055;51.930;8.840;2023-01-16T05:50:12;75172.94;;;-145.72;100.00
15914;BME280;8055;51.930;8.840;2023-01-16T05:52:38;75175.00;;;-145.72;100.00
15914;BME280;8055;51.930;8.840;2023-01-16T05:55:04;75175.00;;;-145.72;100.00
15914;BME280;8055;51.930;8.840;2023-01-16T05:57:29;75170.88;;;-145.72;100.00
15914;BME280;8055;51.930;8.840;2023-01-16T05:59:55;75166.72;;;-145.72;100.00
15914;BME280;8055;51.930;8.840;2023-01-16T06:02:21;75152.25;;;-145.72;100.00
15914;BME280;8055;51.930;8.840;2023-01-16T06:04:46;75148.09;;;-145.72;100.00
15914;BME280;8055;51.930;8.840;2023-01-16T06:07:12;75148.09;;;-145.72;100.00
15914;BME280;8055;51.930;8.840;2023-01-16T06:09:38;75146.03;;;-145.72;100.00
15914;BME280;8055;51.930;8.840;2023-01-16T06:12:04;75146.03;;;-145.72;100.00
15914;BME280;8055;51.930;8.840;2023-01-16T06:14:30;75154.31;;;-145.72;100.00
15914;BME280;8055;51.930;8.840;2023-01-16T06:16:55;75150.16;;;-145.72;100.00
15914;BME280;8055;51.930;8.840;2023-01-16T06:19:20;75152.25;;;-145.72;100.00
15914;BME280;8055;51.930;8.840;2023-01-16T06:21:46;75141.91;;;-145.72;100.00
15914;BME280;8055;51.930;8.840;2023-01-16T06:24:11;75143.97;;;-145.72;100.00
15914;BME280;8055;51.930;8.840;2023-01-16T06:26:36;75137.75;;;-145.72;100.00
15914;BME280;8055;51.930;8.840;2023-01-16T06:29:02;75141.91;;;-145.72;100.00
15914;BME280;8055;51.930;8.840;2023-01-16T06:31:27;75133.63;;;-145.72;100.00
15914;BME280;8055;51.930;8.840;2023-01-16T06:33:53;75133.63;;;-145.72;100.00
15914;BME280;8055;51.930;8.840;2023-01-16T06:36:18;75129.47;;;-145.72;100.00
15914;BME280;8055;51.930;8.840;2023-01-16T06:38:44;75129.47;;;-145.72;100.00
15914;BME280;8055;51.930;8.840;2023-01-16T06:41:09;75123.28;;;-145.72;100.00
15914;BME280;8055;51.930;8.840;2023-01-16T06:43:36;75119.13;;;-145.72;100.00
15914;BME280;8055;51.930;8.840;2023-01-16T06:46:01;75123.28;;;-145.72;100.00
15914;BME280;8055;51.930;8.840;2023-01-16T06:48:26;75117.06;;;-145.72;100.00
15914;BME280;8055;51.930;8.840;2023-01-16T06:50:52;75104.66;;;-145.72;100.00
15914;BME280;8055;51.930;8.840;2023-01-16T06:53:18;75108.78;;;-145.72;100.00
15914;BME280;8055;51.930;8.840;2023-01-16T06:55:43;75104.66;;;-145.72;100.00
15914;BME280;8055;51.930;8.840;2023-01-16T06:58:09;75094.31;;;-145.72;100.00
15914;BME280;8055;51.930;8.840;2023-01-16T07:00:35;75094.31;;;-145.72;100.00
15914;BME280;8055;51.930;8.840;2023-01-16T07:03:02;75090.19;;;-145.72;100.00
15914;BME280;8055;51.930;8.840;2023-01-16T07:05:28;75083.97;;;-145.72;100.00
15914;BME280;8055;51.930;8.840;2023-01-16T07:07:54;75086.03;;;-145.72;100.00
15914;BME280;8055;51.930;8.840;2023-01-16T07:10:20;75077.75;;;-145.72;100.00
15914;BME280;8055;51.930;8.840;2023-01-16T07:12:47;75083.97;;;-145.72;100.00
15914;BME280;8055;51.930;8.840;2023-01-16T07:15:13;75079.81;;;-145.72;100.00
15914;BME280;8055;51.930;8.840;2023-01-16T07:17:56;75069.47;;;-145.72;100.00
15914;BME280;8055;51.930;8.840;2023-01-16T07:20:41;75063.28;;;-145.72;100.00
15914;BME280;8055;51.930;8.840;2023-01-16T07:23:32;75063.28;;;-145.72;100.00
15914;BME280;8055;51.930;8.840;2023-01-16T07:26:01;75048.78;;;-145.72;100.00
15914;BME280;8055;51.930;8.840;2023-01-16T07:28:27;75052.94;;;-145.72;100.00
15914;BME280;8055;51.930;8.840;2023-01-16T07:30:54;75046.72;;;-145.72;100.00
15914;BME280;8055;51.930;8.840;2023-01-16T07:33:19;75048.78;;;-145.72;100.00
15914;BME280;8055;51.930;8.840;2023-01-16T07:35:45;75040.53;;;-145.72;100.00
15914;BME280;8055;51.930;8.840;2023-01-16T07:38:11;75042.59;;;-145.72;100.00
15914;BME280;8055;51.930;8.840;2023-01-16T07:40:36;75038.44;;;-145.72;100.00
15914;BME280;8055;51.930;8.840;2023-01-16T07:43:01;75032.25;;;-145.72;100.00
15914;BME280;8055;51.930;8.840;2023-01-16T07:45:27;75028.09;;;-145.72;100.00
15914;BME280;8055;51.930;8.840;2023-01-16T07:47:52;75017.75;;;-145.72;100.00
15914;BME280;8055;51.930;8.840;2023-01-16T07:50:17;75007.41;;;-145.72;100.00
15914;BME280;8055;51.930;8.840;2023-01-16T07:52:43;75005.34;;;-145.72;100.00
15914;BME280;8055;51.930;8.840;2023-01-16T07:55:09;74999.16;;;-145.72;100.00
15914;BME280;8055;51.930;8.840;2023-01-16T07:57:38;74995.00;;;-145.72;100.00
15914;BME280;8055;51.930;8.840;2023-01-16T08:00:08;74984.66;;;-145.72;100.00
15914;BME280;8055;51.930;8.840;2023-01-16T08:02:35;74980.53;;;-145.72;100.00
15914;BME280;8055;51.930;8.840;2023-01-16T08:05:01;74970.19;;;-145.72;100.00
15914;BME280;8055;51.930;8.840;2023-01-16T08:07:26;74968.13;;;-145.72;100.00
15914;BME280;8055;51.930;8.840;2023-01-16T08:09:52;74959.84;;;-145.72;100.00
15914;BME280;8055;51.930;8.840;2023-01-16T08:12:17;74949.50;;;-145.72;100.00
15914;BME280;8055;51.930;8.840;2023-01-16T08:14:43;74937.06;;;-145.72;100.00
15914;BME280;8055;51.930;8.840;2023-01-16T08:17:08;74935.00;;;-145.72;100.00
15914;BME280;8055;51.930;8.840;2023-01-16T08:19:33;74914.31;;;-145.72;100.00
15914;BME280;8055;51.930;8.840;2023-01-16T08:21:59;74914.31;;;-145.72;100.00
15914;BME280;8055;51.930;8.840;2023-01-16T08:24:24;74910.19;;;-145.72;100.00
15914;BME280;8055;51.930;8.840;2023-01-16T08:26:53;74908.13;;;-145.72;100.00
15914;BME280;8055;51.930;8.840;2023-01-16T08:29:19;74899.84;;;-145.72;100.00
15914;BME280;8055;51.930;8.840;2023-01-16T08:31:45;74889.50;;;-145.72;100.00
15914;BME280;8055;51.930;8.840;2023-01-16T08:34:10;74875.00;;;-145.72;100.00
15914;BME280;8055;51.930;8.840;2023-01-16T08:36:36;74872.94;;;-145.72;100.00
15914;BME280;8055;51.930;8.840;2023-01-16T08:39:01;74856.41;;;-145.72;100.00
15914;BME280;8055;51.930;8.840;2023-01-16T08:41:27;74843.97;;;-145.72;100.00
15914;BME280;8055;51.930;8.840;2023-01-16T08:44:11;74833.63;;;-145.72;100.00
15914;BME280;8055;51.930;8.840;2023-01-16T08:47:04;74829.50;;;-145.72;100.00
15914;BME280;8055;51.930;8.840;2023-01-16T08:49:48;74821.22;;;-145.72;100.00
15914;BME280;8055;51.930;8.840;2023-01-16T08:52:34;74812.94;;;-145.72;100.00
15914;BME280;8055;51.930;8.840;2023-01-16T08:55:01;74804.69;;;-145.72;100.00
15914;BME280;8055;51.930;8.840;2023-01-16T08:57:27;74804.69;;;-145.72;100.00
15914;BME280;8055;51.930;8.840;2023-01-16T08:59:53;74790.19;;;-145.72;100.00
15914;BME280;8055;51.930;8.840;2023-01-16T09:02:19;74773.66;;;-145.72;100.00
15914;BME280;8055;51.930;8.840;2023-01-16T09:04:45;74775.72;;;-145.72;100.00
15914;BME280;8055;51.930;8.840;2023-01-16T09:07:10;74769.50;;;-145.72;100.00
15914;BME280;8055;51.930;8.840;2023-01-16T09:09:35;74752.97;;;-145.72;100.00
15914;BME280;8055;51.930;8.840;2023-01-16T09:12:01;74750.88;;;-145.72;100.00
15914;BME280;8055;51.930;8.840;2023-01-16T09:14:45;74742.63;;;-145.72;100.00
15914;BME280;8055;51.930;8.840;2023-01-16T09:17:10;74740.56;;;-145.72;100.00
15914;BME280;8055;51.930;8.840;2023-01-16T09:19:35;74738.47;;;-145.72;100.00
15914;BME280;8055;51.930;8.840;2023-01-16T09:22:02;74738.47;;;-145.72;100.00
15914;BME280;8055;51.930;8.840;2023-01-16T09:24:29;74726.06;;;-145.72;100.00
15914;BME280;8055;51.930;8.840;2023-01-16T09:26:55;74724.00;;;-145.72;100.00
15914;BME280;8055;51.930;8.840;2023-01-16T09:29:20;74709.53;;;-145.72;100.00
15914;BME280;8055;51.930;8.840;2023-01-16T09:31:45;74697.09;;;-145.72;100.00
15914;BME280;8055;51.930;8.840;2023-01-16T09:34:11;74686.75;;;-145.72;100.00
15914;BME280;8055;51.930;8.840;2023-01-16T09:36:36;74684.69;;;-145.72;100.00
15914;BME280;8055;51.930;8.840;2023-01-16T09:39:02;74670.22;;;-145.72;100.00
15914;BME280;8055;51.930;8.840;2023-01-16T09:41:32;74664.00;;;-145.72;100.00
15914;BME280;8055;51.930;8.840;2023-01-16T09:44:20;74664.00;;;-145.72;100.00
15914;BME280;8055;51.930;8.840;2023-01-16T09:46:49;74664.00;;;-145.72;100.00
15914;BME280;8055;51.930;8.840;2023-01-16T09:49:31;74666.06;;;-145.72;100.00
15914;BME280;8055;51.930;8.840;2023-01-16T09:52:07;74659.88;;;-145.72;100.00
15914;BME280;8055;51.930;8.840;2023-01-16T09:54:58;74655.72;;;-145.72;100.00
15914;BME280;8055;51.930;8.840;2023-01-16T09:57:45;74649.53;;;-145.72;100.00
15914;BME280;8055;51.930;8.840;2023-01-16T10:00:31;74643.31;;;-145.72;100.00
15914;BME280;8055;51.930;8.840;2023-01-16T10:02:59;74626.78;;;-145.72;100.00
15914;BME280;8055;51.930;8.840;2023-01-16T10:05:30;74628.84;;;-145.72;100.00
15914;BME280;8055;51.930;8.840;2023-01-16T10:08:08;74622.63;;;-145.72;100.00
15914;BME280;8055;51.930;8.840;2023-01-16T10:16:19;74601.94;;;-145.72;100.00
15914;BME280;8055;51.930;8.840;2023-01-16T10:18:58;74593.69;;;-145.72;100.00
15914;BME280;8055;51.930;8.840;2023-01-16T10:21:41;74577.13;;;-145.72;100.00
15914;BME280;8055;51.930;8.840;2023-01-16T10:32:45;74548.16;;;-145.72;100.00
15914;BME280;8055;51.930;8.840;2023-01-16T10:35:13;74535.75;;;-145.72;100.00
15914;BME280;8055;51.930;8.840;2023-01-16T10:37:40;74533.69;;;-145.72;100.00
15914;BME280;8055;51.930;8.840;2023-01-16T10:40:25;74523.34;;;-145.72;100.00
15914;BME280;8055;51.930;8.840;2023-01-16T10:43:00;74521.28;;;-145.72;100.00
15914;BME280;8055;51.930;8.840;2023-01-16T10:45:46;74513.00;;;-145.72;100.00
15914;BME280;8055;51.930;8.840;2023-01-16T10:48:46;74502.66;;;-145.72;100.00
15914;BME280;8055;51.930;8.840;2023-01-16T10:51:30;74492.31;;;-145.72;100.00
15914;BME280;8055;51.930;8.840;2023-01-16T10:53:56;74488.19;;;-145.72;100.00
15914;BME280;8055;51.930;8.840;2023-01-16T10:56:24;74484.03;;;-145.72;100.00
15914;BME280;8055;51.930;8.840;2023-01-16T10:58:49;74473.69;;;-145.72;100.00
15914;BME280;8055;51.930;8.840;2023-01-16T11:01:17;74463.34;;;-145.72;100.00
15914;BME280;8055;51.930;8.840;2023-01-16T11:03:49;74450.94;;;-145.72;100.00
15914;BME280;8055;51.930;8.840;2023-01-16T11:06:18;74438.53;;;-145.72;100.00
15914;BME280;8055;51.930;8.840;2023-01-16T11:08:46;74405.44;;;-145.72;100.00
15914;BME280;8055;51.930;8.840;2023-01-16T11:11:14;74399.22;;;-145.72;100.00
15914;BME280;8055;51.930;8.840;2023-01-16T11:14:00;74384.75;;;-145.72;100.00
15914;BME280;8055;51.930;8.840;2023-01-16T11:16:46;74368.19;;;-145.72;100.00
15914;BME280;8055;51.930;8.840;2023-01-16T11:19:40;74362.00;;;-145.72;100.00
15914;BME280;8055;51.930;8.840;2023-01-16T11:22:21;74359.94;;;-145.72;100.00
15914;BME280;8055;51.930;8.840;2023-01-16T11:24:47;74353.72;;;-145.72;100.00
15914;BME280;8055;51.930;8.840;2023-01-16T11:27:18;74351.66;;;-145.72;100.00
15914;BME280;8055;51.930;8.840;2023-01-16T11:29:45;74339.25;;;-145.72;100.00
15914;BME280;8055;51.930;8.840;2023-01-16T11:32:13;74337.16;;;-145.72;100.00
15914;BME280;8055;51.930;8.840;2023-01-16T11:34:44;74310.28;;;-145.72;100.00
15914;BME280;8055;51.930;8.840;2023-01-16T11:37:12;74318.56;;;-145.72;100.00
15914;BME280;8055;51.930;8.840;2023-01-16T11:39:38;74306.16;;;-145.72;100.00
15914;BME280;8055;51.930;8.840;2023-01-16T11:42:09;74308.22;;;-145.72;100.00
15914;BME280;8055;51.930;8.840;2023-01-16T11:44:56;74314.41;;;-145.72;100.00
15914;BME280;8055;51.930;8.840;2023-01-16T11:47:42;74310.28;;;-145.72;100.00
15914;BME280;8055;51.930;8.840;2023-01-16T11:50:27;74310.28;;;-145.72;100.00
15914;BME280;8055;51.930;8.840;2023-01-16T11:52:53;74314.41;;;-145.72;100.00
15914;BME280;8055;51.930;8.840;2023-01-16T11:55:19;74310.28;;;-145.72;100.00
15914;BME280;8055;51.930;8.840;2023-01-16T11:58:15;74310.28;;;-145.72;100.00
15914;BME280;8055;51.930;8.840;2023-01-16T12:00:48;74295.81;;;-145.72;100.00
15914;BME280;8055;51.930;8.840;2023-01-16T12:14:52;74299.94;;;-145.72;100.00
15914;BME280;8055;51.930;8.840;2023-01-16T12:26:16;74310.28;;;-145.72;100.00
15914;BME280;8055;51.930;8.840;2023-01-16T12:29:13;74318.56;;;-145.72;100.00
15914;BME280;8055;51.930;8.840;2023-01-16T12:31:48;74314.41;;;-145.72;100.00
15914;BME280;8055;51.930;8.840;2023-01-16T12:45:17;74316.50;;;-145.72;100.00
15914;BME280;8055;51.930;8.840;2023-01-16T12:50:59;74316.50;;;-145.72;100.00
15914;BME280;8055;51.930;8.840;2023-01-16T12:59:02;74302.00;;;-145.72;100.00
15914;BME280;8055;51.930;8.840;2023-01-16T13:01:34;74297.88;;;-145.72;100.00
15914;BME280;8055;51.930;8.840;2023-01-16T13:09:35;74297.88;;;-145.72;100.00
15914;BME280;8055;51.930;8.840;2023-01-16T13:15:10;74285.47;;;-145.72;100.00
15914;BME280;8055;51.930;8.840;2023-01-16T13:18:01;74277.19;;;-145.72;100.00
15914;BME280;8055;51.930;8.840;2023-01-16T13:20:31;74268.91;;;-145.72;100.00
15914;BME280;8055;51.930;8.840;2023-01-16T13:23:16;74266.84;;;-145.72;100.00
15914;BME280;8055;51.930;8.840;2023-01-16T13:25:47;74268.91;;;-145.72;100.00
15914;BME280;8055;51.930;8.840;2023-01-16T13:31:02;74246.16;;;-145.72;100.00
15914;BME280;8055;51.930;8.840;2023-01-16T13:33:32;74254.44;;;-145.72;100.00
15914;BME280;8055;51.930;8.840;2023-01-16T13:36:03;74252.38;;;-145.72;100.00
15914;BME280;8055;51.930;8.840;2023-01-16T13:38:44;74248.22;;;-145.72;100.00
15914;BME280;8055;51.930;8.840;2023-01-16T13:47:04;74213.06;;;-145.72;100.00
15914;BME280;8055;51.930;8.840;2023-01-16T13:49:31;74219.28;;;-145.72;100.00
15914;BME280;8055;51.930;8.840;2023-01-16T13:51:57;74215.13;;;-145.72;100.00
15914;BME280;8055;51.930;8.840;2023-01-16T13:54:46;74215.13;;;-145.72;100.00
15914;BME280;8055;51.930;8.840;2023-01-16T13:57:17;74225.47;;;-145.72;100.00
15914;BME280;8055;51.930;8.840;2023-01-16T14:00:00;74213.06;;;-145.72;100.00
15914;BME280;8055;51.930;8.840;2023-01-16T14:02:42;74208.94;;;-145.72;100.00
15914;BME280;8055;51.930;8.840;2023-01-16T14:18:41;74179.97;;;-145.72;100.00
15914;BME280;8055;51.930;8.840;2023-01-16T14:21:17;74173.75;;;-145.72;100.00
15914;BME280;8055;51.930;8.840;2023-01-16T14:23:48;74171.69;;;-145.72;100.00
15914;BME280;8055;51.930;8.840;2023-01-16T14:29:16;74182.03;;;-145.72;100.00
15914;BME280;8055;51.930;8.840;2023-01-16T14:31:50;74184.09;;;-145.72;100.00
15914;BME280;8055;51.930;8.840;2023-01-16T14:34:21;74186.19;;;-145.72;100.00
15914;BME280;8055;51.930;8.840;2023-01-16T14:36:53;74192.38;;;-145.72;100.00
15914;BME280;8055;51.930;8.840;2023-01-16T14:39:36;74198.59;;;-145.72;100.00
15914;BME280;8055;51.930;8.840;2023-01-16T14:42:13;74211.00;;;-145.72;100.00
15914;BME280;8055;51.930;8.840;2023-01-16T14:48:09;74225.47;;;-145.72;100.00
15914;BME280;8055;51.930;8.840;2023-01-16T14:53:56;74211.00;;;-145.72;100.00
15914;BME280;8055;51.930;8.840;2023-01-16T14:56:41;74215.13;;;-145.72;100.00
15914;BME280;8055;51.930;8.840;2023-01-16T14:59:12;74215.13;;;-145.72;100.00
15914;BME280;8055;51.930;8.840;2023-01-16T15:02:01;74202.72;;;-145.72;100.00
15914;BME280;8055;51.930;8.840;2023-01-16T15:07:19;74211.00;;;-145.72;100.00
15914;BME280;8055;51.930;8.840;2023-01-16T15:09:49;74215.13;;;-145.72;100.00